HVB weather

Hervey Bay Airport
Hervey Bay, Queensland, Australia

Public forecast

Using degrees Celsius for public forecast. Weather courtesy of forecast.io.

METAR (pilot weather report)

Closest report is Bundaberg Airport, 39.4 nm (72.9 km) NW. Retrieved 2019/03/26 10:00 UTC (23 minutes ago):

YBUD 261000Z AUTO 06004KT 9999 // NCD 26/21 Q1014

TAF (pilot weather forecast)

Forecast is more than 12 hours old.

Closest forecast is Gladstone Airport, 125.5 nm (232.4 km) NW. Retrieved 2019/03/25 00:00 UTC (1 day ago):

TAF YGLA 252224Z 2600/2612 05006KT 9999 SCT025 FM260200 06012KT 9999 FEW030 FM260900 08006KT 9999 SCT020